Time;durP1;ratioP1;P1;durP2;ratioP2;P2;SDS_P1;SDS_P2;PMS_P1;PMS_P2;Temp;Humidity;BMP_temperature;BMP_pressure;BME280_temperature;BME280_humidity;BME280_pressure;Samples;Min_cycle;Max_cycle;Signal;HPM_P1;HPM_P2
2021/06/23 00:01:33;;;;;;;1.00;0.77;;;13.40;77.10;;;;;;5092405;28;20089;-76
2021/06/23 00:03:59;;;;;;;0.80;0.80;;;13.40;77.00;;;;;;5073947;28;20044;-77
2021/06/23 00:06:25;;;;;;;1.30;0.90;;;13.40;77.10;;;;;;5092643;28;20036;-76
2021/06/23 00:08:50;;;;;;;1.25;0.93;;;13.40;77.10;;;;;;5092425;28;20060;-76
2021/06/23 00:11:16;;;;;;;1.15;0.88;;;13.40;77.20;;;;;;5092437;28;20085;-76
2021/06/23 00:13:42;;;;;;;0.80;0.80;;;13.40;77.20;;;;;;5057449;28;20040;-76
2021/06/23 00:16:09;;;;;;;0.82;0.75;;;13.30;77.30;;;;;;5092269;28;20043;-76
2021/06/23 00:18:35;;;;;;;1.00;0.82;;;13.30;77.30;;;;;;5092749;28;20043;-76
2021/06/23 00:21:02;;;;;;;0.70;0.70;;;13.40;77.30;;;;;;5077310;28;20127;-76
2021/06/23 00:23:27;;;;;;;1.05;0.70;;;13.30;77.40;;;;;;5077718;28;20130;-77
2021/06/23 00:25:54;;;;;;;1.42;0.98;;;13.40;77.50;;;;;;5077909;28;20063;-76
2021/06/23 00:28:20;;;;;;;0.70;0.70;;;13.30;77.50;;;;;;5096201;28;20047;-76
2021/06/23 00:30:46;;;;;;;0.75;0.75;;;13.20;77.60;;;;;;5078476;28;20036;-76
2021/06/23 00:33:18;;;;;;;0.68;0.68;;;13.20;77.70;;;;;;5061502;28;20040;-76
2021/06/23 00:35:44;;;;;;;1.10;0.90;;;13.10;77.70;;;;;;5078287;28;20096;-76
2021/06/23 00:38:10;;;;;;;1.35;0.82;;;13.10;77.70;;;;;;5096460;28;20112;-76
2021/06/23 00:40:36;;;;;;;0.88;0.85;;;13.20;77.80;;;;;;5096422;28;20139;-76
2021/06/23 00:43:03;;;;;;;1.13;0.75;;;13.10;77.80;;;;;;5078235;28;20036;-76
2021/06/23 00:45:29;;;;;;;1.02;0.80;;;13.10;77.80;;;;;;5096264;28;20043;-75
2021/06/23 00:47:57;;;;;;;0.70;0.70;;;13.10;77.90;;;;;;5077192;28;20040;-74
2021/06/23 00:50:23;;;;;;;0.82;0.70;;;13.10;77.90;;;;;;5095363;28;20036;-74
2021/06/23 00:52:52;;;;;;;0.88;0.80;;;13.10;78.00;;;;;;5095800;28;20028;-75
2021/06/23 00:55:22;;;;;;;0.77;0.77;;;13.10;78.10;;;;;;5095021;28;20040;-75
2021/06/23 00:57:50;;;;;;;0.98;0.90;;;13.10;78.20;;;;;;5095660;28;20036;-74
2021/06/23 01:00:20;;;;;;;1.10;1.00;;;13.10;78.20;;;;;;5076774;28;20505;-75
2021/06/23 01:02:48;;;;;;;1.00;0.90;;;13.10;78.20;;;;;;5095520;28;20439;-74
2021/06/23 01:05:15;;;;;;;1.35;0.77;;;13.10;78.20;;;;;;5095352;28;20070;-74
2021/06/23 01:07:41;;;;;;;0.60;0.60;;;13.10;78.20;;;;;;5060307;28;20075;-74
2021/06/23 01:10:07;;;;;;;0.70;0.70;;;13.10;78.20;;;;;;5077423;28;20165;-74
2021/06/23 01:13:01;;;;;;;0.70;0.70;;;13.10;78.10;;;;;;5094868;28;20493;-74
2021/06/23 01:15:28;;;;;;;0.60;0.60;;;13.10;78.20;;;;;;5094612;28;20048;-74
2021/06/23 01:17:54;;;;;;;0.60;0.60;;;13.10;78.20;;;;;;5076566;28;20103;-74
2021/06/23 01:20:19;;;;;;;1.30;0.70;;;13.20;78.20;;;;;;5094922;28;20052;-76
2021/06/23 01:22:46;;;;;;;0.70;0.70;;;13.20;78.20;;;;;;5077276;28;20032;-74
2021/06/23 01:25:14;;;;;;;1.05;0.93;;;13.10;78.20;;;;;;5094634;28;20052;-74
2021/06/23 01:27:42;;;;;;;1.30;0.82;;;13.20;78.20;;;;;;5077121;28;20374;-74
2021/06/23 01:30:11;;;;;;;1.65;0.90;;;13.20;78.30;;;;;;5060325;28;20127;-74
2021/06/23 01:32:37;;;;;;;0.75;0.73;;;13.20;78.30;;;;;;5060050;28;20059;-74
2021/06/23 01:35:04;;;;;;;1.13;0.90;;;13.20;78.40;;;;;;5076601;28;20077;-74
2021/06/23 01:37:30;;;;;;;0.75;0.70;;;13.20;78.40;;;;;;5076619;28;20048;-74
2021/06/23 01:39:58;;;;;;;1.08;0.70;;;13.20;78.50;;;;;;5094532;28;20046;-74
2021/06/23 01:42:24;;;;;;;0.60;0.60;;;13.20;78.60;;;;;;5076220;28;20039;-74
2021/06/23 01:44:50;;;;;;;0.60;0.60;;;13.10;78.60;;;;;;5076444;28;20505;-74
2021/06/23 01:47:15;;;;;;;0.52;0.52;;;13.10;78.60;;;;;;5042974;28;20524;-74
2021/06/23 01:49:41;;;;;;;0.88;0.70;;;13.20;78.70;;;;;;5076385;28;20028;-74
2021/06/23 01:52:07;;;;;;;0.60;0.60;;;13.20;78.70;;;;;;5094037;28;20494;-74
2021/06/23 01:54:33;;;;;;;0.70;0.70;;;13.10;78.70;;;;;;5076078;28;20482;-74
2021/06/23 01:56:59;;;;;;;0.65;0.60;;;13.20;78.80;;;;;;5076071;28;20130;-74
2021/06/23 01:59:26;;;;;;;0.88;0.65;;;13.20;78.70;;;;;;5059256;28;20119;-74
2021/06/23 02:02:20;;;;;;;1.58;0.80;;;13.10;78.60;;;;;;5059263;28;20047;-74
2021/06/23 02:05:04;;;;;;;0.50;0.50;;;13.20;78.80;;;;;;5094404;28;20044;-74
2021/06/23 02:07:50;;;;;;;0.82;0.55;;;13.20;78.80;;;;;;5059701;28;20047;-74
2021/06/23 02:10:40;;;;;;;0.52;0.52;;;13.20;78.80;;;;;;5077453;28;20119;-74
2021/06/23 02:13:42;;;;;;;0.60;0.60;;;13.10;78.80;;;;;;5075775;28;20110;-74
2021/06/23 02:16:10;;;;;;;0.60;0.60;;;13.10;78.90;;;;;;5079282;28;20040;-74
2021/06/23 02:18:37;;;;;;;0.60;0.60;;;13.10;78.90;;;;;;5075662;28;20040;-74
2021/06/23 02:21:05;;;;;;;0.82;0.77;;;13.10;78.90;;;;;;5075959;28;20036;-74
2021/06/23 02:23:34;;;;;;;0.80;0.80;;;13.10;78.90;;;;;;5094032;28;20571;-74
2021/06/23 02:26:00;;;;;;;1.00;0.70;;;13.10;79.00;;;;;;5075578;28;20044;-74
2021/06/23 02:28:26;;;;;;;3.10;0.90;;;13.10;78.90;;;;;;5093793;28;20428;-74
2021/06/23 02:30:52;;;;;;;0.68;0.65;;;13.10;78.90;;;;;;5075754;28;20051;-74
2021/06/23 02:33:19;;;;;;;0.90;0.70;;;13.10;79.00;;;;;;5075264;28;20040;-74
2021/06/23 02:35:45;;;;;;;0.55;0.50;;;13.10;79.00;;;;;;5075769;28;20573;-74
2021/06/23 02:38:12;;;;;;;1.00;0.80;;;13.10;79.00;;;;;;5058579;28;20093;-74
2021/06/23 02:40:38;;;;;;;1.42;0.80;;;13.10;79.00;;;;;;5058756;28;20044;-74
2021/06/23 02:43:05;;;;;;;0.63;0.60;;;13.10;79.00;;;;;;5092460;28;20040;-74
2021/06/23 02:45:31;;;;;;;0.93;0.80;;;13.20;79.10;;;;;;5093470;28;20048;-74
2021/06/23 02:47:57;;;;;;;0.93;0.63;;;13.10;79.10;;;;;;5093319;28;20109;-74
2021/06/23 02:50:24;;;;;;;0.77;0.73;;;13.10;79.10;;;;;;5093257;28;20067;-74
2021/06/23 02:52:50;;;;;;;0.68;0.68;;;13.20;79.20;;;;;;5075376;28;20055;-74
2021/06/23 02:55:19;;;;;;;0.80;0.80;;;13.10;79.10;;;;;;5093221;28;20107;-74
2021/06/23 02:57:47;;;;;;;0.75;0.70;;;13.10;79.70;;;;;;5075570;28;20036;-74
2021/06/23 03:00:13;;;;;;;0.80;0.60;;;13.10;79.20;;;;;;5075632;28;20040;-74
2021/06/23 03:02:39;;;;;;;1.02;0.70;;;13.10;79.20;;;;;;5093223;28;20504;-74
2021/06/23 03:05:05;;;;;;;0.73;0.60;;;13.10;79.30;;;;;;5058174;28;20036;-74
2021/06/23 03:07:31;;;;;;;0.50;0.50;;;13.10;79.30;;;;;;5092959;28;20036;-74
2021/06/23 03:10:12;;;;;;;0.88;0.88;;;13.10;79.30;;;;;;5093019;28;20062;-74
2021/06/23 03:12:38;;;;;;;1.00;0.75;;;13.10;79.30;;;;;;5093129;28;20042;-74
2021/06/23 03:15:06;;;;;;;0.68;0.68;;;13.10;79.30;;;;;;5093031;28;20051;-74
2021/06/23 03:17:32;;;;;;;0.68;0.68;;;13.10;79.30;;;;;;5092857;28;20127;-74
2021/06/23 03:19:58;;;;;;;0.77;0.77;;;13.10;79.30;;;;;;5092968;28;20067;-74
2021/06/23 03:22:23;;;;;;;0.50;0.50;;;13.10;79.30;;;;;;5074676;28;20185;-74
2021/06/23 03:24:50;;;;;;;0.68;0.68;;;13.10;79.30;;;;;;5092449;28;20052;-74
2021/06/23 03:27:16;;;;;;;0.70;0.70;;;13.20;79.90;;;;;;5093188;28;20101;-74
2021/06/23 03:29:41;;;;;;;0.70;0.70;;;13.10;79.20;;;;;;5057863;28;20040;-75
2021/06/23 03:32:09;;;;;;;1.17;0.63;;;13.10;79.10;;;;;;5074380;28;20043;-74
2021/06/23 03:34:36;;;;;;;0.60;0.60;;;13.10;79.10;;;;;;5057769;28;20416;-75
2021/06/23 03:37:03;;;;;;;0.70;0.70;;;13.10;79.10;;;;;;5074298;28;20087;-74
2021/06/23 03:39:29;;;;;;;3.55;0.80;;;13.10;79.10;;;;;;5092449;28;20035;-74
2021/06/23 03:41:54;;;;;;;0.70;0.70;;;13.10;79.00;;;;;;5057590;28;20394;-74
2021/06/23 03:44:20;;;;;;;0.90;0.80;;;13.10;79.00;;;;;;5074192;28;20128;-74
2021/06/23 03:46:46;;;;;;;0.90;0.70;;;13.10;79.00;;;;;;5092770;28;20055;-74
2021/06/23 03:49:12;;;;;;;1.02;0.80;;;13.10;79.00;;;;;;5058022;28;20038;-74
2021/06/23 03:51:37;;;;;;;0.80;0.65;;;13.10;79.00;;;;;;5092675;28;20047;-76
2021/06/23 03:54:03;;;;;;;0.50;0.50;;;13.10;78.90;;;;;;5091736;28;20355;-75
2021/06/23 03:56:29;;;;;;;0.80;0.63;;;13.10;78.90;;;;;;5092765;28;20122;-74
2021/06/23 03:58:55;;;;;;;0.60;0.60;;;13.10;79.50;;;;;;5074352;28;20036;-74
2021/06/23 04:01:21;;;;;;;0.73;0.65;;;13.10;78.80;;;;;;5074242;28;20071;-74
2021/06/23 04:03:47;;;;;;;1.05;0.75;;;13.10;78.80;;;;;;5057751;28;20123;-74
2021/06/23 04:06:12;;;;;;;0.47;0.47;;;13.10;78.80;;;;;;5092773;28;20505;-74
2021/06/23 04:08:38;;;;;;;1.08;0.73;;;13.10;78.80;;;;;;5074492;28;20040;-74
2021/06/23 04:11:04;;;;;;;0.60;0.57;;;13.10;78.70;;;;;;5074372;28;20044;-74
2021/06/23 04:13:30;;;;;;;0.55;0.50;;;13.20;78.70;;;;;;5074319;28;20071;-74
2021/06/23 04:15:55;;;;;;;0.50;0.50;;;13.20;78.70;;;;;;5057390;28;20076;-74
2021/06/23 04:18:21;;;;;;;0.50;0.50;;;13.10;78.60;;;;;;5092142;28;20092;-73
2021/06/23 04:20:47;;;;;;;0.80;0.50;;;13.10;78.70;;;;;;5092160;28;20050;-74
2021/06/23 04:23:13;;;;;;;0.57;0.57;;;13.10;78.70;;;;;;5073821;28;20088;-74
2021/06/23 04:25:38;;;;;;;0.60;0.60;;;13.10;78.70;;;;;;5073866;28;20075;-74
2021/06/23 04:28:04;;;;;;;0.60;0.50;;;13.10;78.80;;;;;;5092108;28;20460;-74
2021/06/23 04:30:30;;;;;;;0.95;0.65;;;13.10;78.80;;;;;;5092454;28;20032;-74
2021/06/23 04:32:56;;;;;;;0.85;0.68;;;13.10;78.80;;;;;;5092146;28;20391;-74
2021/06/23 04:35:22;;;;;;;0.57;0.55;;;13.10;78.80;;;;;;5074041;28;20051;-74
2021/06/23 04:37:47;;;;;;;0.60;0.60;;;13.10;78.80;;;;;;5073710;28;20094;-74
2021/06/23 04:40:15;;;;;;;0.60;0.60;;;13.10;78.70;;;;;;5091852;28;20366;-74
2021/06/23 04:42:42;;;;;;;0.65;0.60;;;13.10;78.80;;;;;;5073986;28;20047;-74
2021/06/23 04:45:10;;;;;;;0.88;0.80;;;13.10;78.70;;;;;;5074269;28;20101;-74
2021/06/23 04:47:38;;;;;;;0.70;0.70;;;13.10;78.60;;;;;;5073623;28;20123;-74
2021/06/23 04:50:06;;;;;;;0.77;0.70;;;13.20;78.60;;;;;;5091854;28;20583;-74
2021/06/23 04:52:31;;;;;;;0.93;0.60;;;13.10;78.50;;;;;;5091750;28;20127;-74
2021/06/23 04:54:57;;;;;;;0.60;0.60;;;13.20;78.60;;;;;;5091948;28;20469;-77
2021/06/23 04:57:23;;;;;;;0.80;0.73;;;13.20;78.60;;;;;;5057859;28;20040;-77
2021/06/23 04:59:48;;;;;;;1.23;0.75;;;13.20;78.70;;;;;;5040468;28;20444;-75
2021/06/23 05:02:14;;;;;;;0.63;0.50;;;13.10;78.60;;;;;;5058315;28;20131;-76
2021/06/23 05:04:41;;;;;;;1.75;1.10;;;13.20;78.70;;;;;;5057109;28;20048;-76
2021/06/23 05:07:07;;;;;;;1.85;0.90;;;13.20;78.60;;;;;;5095945;28;20082;-76
2021/06/23 05:09:36;;;;;;;0.63;0.55;;;13.20;78.60;;;;;;5077353;28;20481;-76
2021/06/23 05:12:02;;;;;;;1.60;0.88;;;13.30;78.60;;;;;;5077931;28;20075;-76
2021/06/23 05:14:28;;;;;;;0.60;0.60;;;13.30;78.60;;;;;;5060437;28;20070;-76
2021/06/23 05:16:54;;;;;;;0.60;0.60;;;13.30;78.60;;;;;;5096253;28;20067;-76
2021/06/23 05:19:20;;;;;;;0.80;0.70;;;13.30;78.50;;;;;;5060431;28;20079;-76
2021/06/23 05:21:46;;;;;;;0.60;0.60;;;13.30;78.50;;;;;;5077031;28;20082;-76
2021/06/23 05:24:12;;;;;;;0.52;0.52;;;13.40;78.50;;;;;;5077157;28;20091;-76
2021/06/23 05:26:38;;;;;;;0.77;0.75;;;13.40;78.30;;;;;;5077378;28;20375;-76
2021/06/23 05:29:05;;;;;;;0.60;0.60;;;13.40;78.30;;;;;;5095553;28;20494;-76
2021/06/23 05:31:31;;;;;;;0.85;0.60;;;13.40;78.30;;;;;;5095051;28;20040;-76
2021/06/23 05:33:57;;;;;;;0.70;0.50;;;13.50;78.20;;;;;;5060612;28;20403;-76
2021/06/23 05:36:22;;;;;;;0.77;0.77;;;13.50;78.20;;;;;;5060738;28;20040;-76
2021/06/23 05:38:48;;;;;;;0.60;0.50;;;13.50;78.10;;;;;;5077320;28;20043;-76
2021/06/23 05:41:14;;;;;;;0.65;0.60;;;13.60;78.20;;;;;;5077437;28;20042;-76
2021/06/23 05:43:40;;;;;;;0.65;0.65;;;13.50;78.10;;;;;;5060684;28;20410;-76
2021/06/23 05:46:06;;;;;;;0.88;0.70;;;13.60;78.10;;;;;;5076996;28;20040;-76
2021/06/23 05:48:32;;;;;;;0.75;0.60;;;13.70;78.10;;;;;;5060712;28;20115;-76
2021/06/23 05:50:58;;;;;;;0.70;0.70;;;13.70;78.00;;;;;;5095978;28;20032;-75
2021/06/23 05:53:23;;;;;;;1.02;0.65;;;13.70;77.90;;;;;;5093886;28;20048;-76
2021/06/23 05:55:49;;;;;;;0.60;0.60;;;13.70;78.50;;;;;;5060339;28;20467;-76
2021/06/23 05:58:15;;;;;;;1.33;0.70;;;13.90;77.80;;;;;;5095265;28;20044;-76
2021/06/23 06:00:41;;;;;;;0.80;0.60;;;13.90;77.70;;;;;;5076544;28;20047;-76
2021/06/23 06:03:07;;;;;;;0.82;0.50;;;14.00;77.60;;;;;;5076717;28;20043;-76
2021/06/23 06:05:33;;;;;;;1.42;0.60;;;14.00;77.40;;;;;;5060670;28;20036;-76
2021/06/23 06:07:59;;;;;;;1.08;0.70;;;14.20;77.40;;;;;;5078890;28;20044;-76
2021/06/23 06:10:25;;;;;;;0.57;0.55;;;14.30;77.10;;;;;;5094412;28;20054;-77
2021/06/23 06:12:51;;;;;;;0.70;0.70;;;14.30;77.00;;;;;;5078702;28;20052;-79
2021/06/23 06:15:17;;;;;;;0.60;0.55;;;14.40;76.90;;;;;;5096810;28;20131;-77
2021/06/23 06:17:43;;;;;;;1.35;0.70;;;14.50;76.80;;;;;;5043290;28;20042;-76
2021/06/23 06:20:10;;;;;;;0.57;0.57;;;14.50;76.60;;;;;;5095958;28;20044;-76
2021/06/23 06:22:37;;;;;;;0.65;0.60;;;14.70;76.50;;;;;;5078520;28;20046;-76
2021/06/23 06:25:03;;;;;;;0.95;0.60;;;14.70;76.30;;;;;;5076724;28;20036;-76
2021/06/23 06:27:29;;;;;;;1.08;0.63;;;14.70;76.30;;;;;;5044263;28;20036;-76
2021/06/23 06:29:55;;;;;;;1.10;0.70;;;14.70;76.30;;;;;;5077132;28;20434;-76
2021/06/23 06:32:20;;;;;;;1.95;0.68;;;14.70;76.20;;;;;;5077637;28;20393;-77
2021/06/23 06:34:46;;;;;;;1.20;0.60;;;14.80;76.30;;;;;;5100265;28;20039;-78
2021/06/23 06:37:12;;;;;;;0.82;0.30;;;14.80;76.20;;;;;;5080331;28;20035;-76
2021/06/23 06:39:38;;;;;;;0.50;0.50;;;14.90;76.20;;;;;;5077052;28;20072;-78
2021/06/23 06:42:07;;;;;;;0.90;0.50;;;14.90;76.20;;;;;;5059144;28;20127;-80
2021/06/23 06:44:33;;;;;;;0.52;0.50;;;14.90;76.80;;;;;;5043343;28;20401;-78
2021/06/23 06:47:02;;;;;;;1.02;0.60;;;14.90;76.20;;;;;;5099572;28;20074;-80
2021/06/23 06:49:31;;;;;;;0.60;0.57;;;15.00;76.20;;;;;;5042966;28;20063;-78
2021/06/23 06:51:58;;;;;;;0.88;0.60;;;15.00;76.20;;;;;;5059043;28;20097;-78
2021/06/23 06:54:29;;;;;;;1.13;0.50;;;15.10;76.20;;;;;;5042268;28;20075;-79
2021/06/23 06:56:55;;;;;;;0.50;0.50;;;15.10;76.10;;;;;;5049639;28;20055;-78
2021/06/23 06:59:21;;;;;;;1.52;0.65;;;15.10;76.00;;;;;;5086725;28;20067;-80
2021/06/23 07:01:48;;;;;;;0.73;0.60;;;15.10;76.00;;;;;;5081118;28;20560;-78
2021/06/23 07:04:15;;;;;;;0.43;0.40;;;15.10;76.00;;;;;;5064371;28;20036;-78
2021/06/23 07:06:43;;;;;;;0.63;0.43;;;15.20;76.00;;;;;;5065719;28;20123;-78
2021/06/23 07:09:09;;;;;;;0.50;0.50;;;15.30;76.00;;;;;;5063998;28;20050;-79
2021/06/23 07:13:15;;;;;;;0.93;0.60;;;15.30;75.90;;;;;;5069643;28;20035;-81
2021/06/23 07:15:40;;;;;;;0.52;0.45;;;15.30;75.80;;;;;;4974829;28;20073;-79
2021/06/23 07:18:06;;;;;;;0.73;0.40;;;15.40;75.50;;;;;;4971542;28;20014;-78
2021/06/23 07:20:32;;;;;;;0.65;0.45;;;15.40;75.40;;;;;;5003725;28;20042;-79
2021/06/23 07:23:01;;;;;;;1.00;0.40;;;15.40;75.40;;;;;;4966180;28;20133;-81
2021/06/23 07:25:27;;;;;;;0.50;0.50;;;15.40;75.40;;;;;;4983965;28;20085;-79
2021/06/23 07:28:00;;;;;;;0.40;0.40;;;15.40;75.30;;;;;;4974906;28;20042;-82
2021/06/23 07:30:27;;;;;;;0.50;0.50;;;15.50;75.30;;;;;;4962018;28;20050;-77
2021/06/23 07:33:05;;;;;;;0.40;0.40;;;15.50;75.20;;;;;;4966679;28;20045;-80
2021/06/23 07:38:14;;;;;;;0.90;0.60;;;15.60;75.00;;;;;;4998749;28;20085;-80
2021/06/23 07:41:05;;;;;;;0.60;0.50;;;15.60;75.00;;;;;;4974475;28;20052;-81
2021/06/23 07:43:31;;;;;;;0.80;0.60;;;15.60;74.90;;;;;;4986834;28;20054;-78
2021/06/23 07:45:59;;;;;;;0.30;0.30;;;15.60;74.90;;;;;;5010310;28;20040;-76
2021/06/23 07:48:28;;;;;;;0.50;0.50;;;15.70;74.70;;;;;;5039518;28;20052;-79
2021/06/23 07:51:06;;;;;;;1.17;0.50;;;15.80;74.60;;;;;;5039102;28;20491;-77
2021/06/23 07:53:40;;;;;;;0.73;0.55;;;15.80;74.40;;;;;;5048156;28;20040;-80
2021/06/23 07:56:08;;;;;;;0.60;0.50;;;15.90;74.40;;;;;;5043176;28;20053;-82
2021/06/23 08:02:02;;;;;;;2.10;0.60;;;16.00;74.20;;;;;;5052890;28;20049;-77
2021/06/23 08:12:18;;;;;;;0.55;0.50;;;16.60;72.90;;;;;;5040300;28;20045;-79
2021/06/23 08:15:24;;;;;;;0.50;0.40;;;16.80;72.80;;;;;;5056935;28;20083;-85
2021/06/23 08:17:50;;;;;;;0.77;0.52;;;16.90;72.80;;;;;;4969903;28;20154;-80
2021/06/23 08:20:16;;;;;;;1.15;0.65;;;17.00;72.50;;;;;;4968491;28;20058;-76
2021/06/23 08:22:42;;;;;;;1.00;0.55;;;17.10;72.10;;;;;;4970032;28;20030;-76
2021/06/23 08:25:21;;;;;;;0.57;0.55;;;17.10;72.10;;;;;;4985134;28;20536;-81
2021/06/23 08:27:47;;;;;;;0.93;0.60;;;17.10;72.30;;;;;;4980175;28;20054;-81
2021/06/23 08:30:37;;;;;;;0.50;0.50;;;17.20;72.40;;;;;;4965982;28;20082;-83
2021/06/23 08:33:11;;;;;;;0.55;0.43;;;17.50;72.10;;;;;;4891936;29;20040;-82
2021/06/23 08:35:37;;;;;;;0.57;0.57;;;17.50;71.90;;;;;;4896674;29;20072;-79
2021/06/23 08:38:03;;;;;;;0.60;0.50;;;17.40;71.90;;;;;;4906834;29;20051;-80
2021/06/23 08:40:30;;;;;;;0.50;0.50;;;17.40;72.00;;;;;;4893332;29;20056;-81
2021/06/23 08:43:17;;;;;;;1.17;0.70;;;17.40;72.90;;;;;;4909276;29;20113;-84
2021/06/23 08:46:15;;;;;;;0.43;0.43;;;17.30;72.30;;;;;;4888449;29;20048;-85
2021/06/23 08:48:54;;;;;;;0.73;0.50;;;17.50;72.30;;;;;;4905580;29;20160;-84
2021/06/23 08:51:22;;;;;;;0.52;0.52;;;17.50;72.10;;;;;;4900144;29;20044;-79
2021/06/23 08:53:48;;;;;;;1.30;0.63;;;17.60;72.20;;;;;;4913086;29;20144;-79
2021/06/23 08:56:14;;;;;;;0.57;0.52;;;17.60;72.00;;;;;;4971867;29;20051;-78
2021/06/23 08:58:40;;;;;;;0.47;0.47;;;17.70;71.90;;;;;;4963919;29;20103;-78
2021/06/23 09:01:05;;;;;;;1.30;0.57;;;17.80;71.90;;;;;;4959716;29;20050;-76
2021/06/23 09:03:51;;;;;;;0.45;0.40;;;17.90;71.60;;;;;;4941085;29;20090;-77
2021/06/23 09:06:38;;;;;;;0.65;0.50;;;18.00;71.50;;;;;;4950128;29;20045;-76
2021/06/23 09:09:26;;;;;;;0.65;0.40;;;18.10;71.20;;;;;;4954955;28;20039;-76
2021/06/23 09:12:02;;;;;;;1.08;0.47;;;18.30;71.20;;;;;;5055878;28;20098;-77
2021/06/23 09:14:30;;;;;;;0.52;0.43;;;18.40;70.80;;;;;;5055990;28;20411;-78
2021/06/23 09:17:10;;;;;;;0.63;0.50;;;18.50;70.70;;;;;;5097661;28;20504;-81
2021/06/23 09:19:41;;;;;;;1.25;0.50;;;18.60;70.30;;;;;;5086090;28;20148;-84
2021/06/23 09:22:36;;;;;;;0.80;0.60;;;18.80;70.00;;;;;;5079371;28;20466;-84
2021/06/23 09:25:24;;;;;;;1.63;0.50;;;19.00;69.60;;;;;;5088796;28;20051;-82
2021/06/23 09:27:56;;;;;;;1.15;0.60;;;19.00;69.40;;;;;;5083894;28;20024;-80
2021/06/23 09:30:27;;;;;;;0.57;0.40;;;19.00;69.40;;;;;;5102776;28;20032;-81
2021/06/23 09:33:11;;;;;;;0.90;0.50;;;18.90;70.10;;;;;;5086105;28;20036;-82
2021/06/23 09:42:55;;;;;;;0.88;0.55;;;19.30;69.20;;;;;;4949970;28;20516;-83
2021/06/23 09:45:24;;;;;;;0.40;0.40;;;19.10;69.30;;;;;;4921101;29;20513;-80
2021/06/23 09:51:41;;;;;;;1.40;0.70;;;19.30;69.20;;;;;;4910123;29;20141;-80
2021/06/23 09:54:07;;;;;;;1.13;0.50;;;19.50;68.80;;;;;;4919121;29;20506;-81
2021/06/23 09:56:38;;;;;;;0.40;0.40;;;19.60;68.60;;;;;;4904996;29;20044;-78
2021/06/23 09:59:34;;;;;;;0.77;0.57;;;19.70;68.30;;;;;;4913947;29;20067;-79
2021/06/23 10:02:00;;;;;;;0.30;0.30;;;19.90;68.10;;;;;;4900948;29;20052;-79
2021/06/23 10:04:35;;;;;;;0.50;0.50;;;19.90;67.90;;;;;;4891015;29;20506;-80
2021/06/23 10:07:02;;;;;;;0.40;0.40;;;20.00;67.80;;;;;;4896110;29;20151;-78
2021/06/23 10:09:29;;;;;;;0.40;0.40;;;20.00;67.80;;;;;;4930312;29;20394;-82
2021/06/23 10:12:01;;;;;;;4.20;0.65;;;20.00;67.70;;;;;;4924967;29;20059;-78
2021/06/23 10:14:29;;;;;;;0.82;0.60;;;20.00;67.80;;;;;;4915386;29;20078;-78
2021/06/23 10:16:55;;;;;;;0.57;0.50;;;20.00;68.00;;;;;;4934924;28;20046;-80
2021/06/23 10:19:22;;;;;;;0.85;0.40;;;19.90;68.10;;;;;;4994216;28;20050;-79
2021/06/23 10:21:48;;;;;;;0.55;0.50;;;19.90;68.80;;;;;;4976767;28;20182;-79
2021/06/23 10:24:16;;;;;;;1.40;0.60;;;20.00;68.10;;;;;;4978297;28;20135;-78
2021/06/23 10:26:51;;;;;;;0.75;0.57;;;20.00;67.90;;;;;;4981103;28;20053;-79
2021/06/23 10:29:26;;;;;;;1.73;0.77;;;20.00;67.60;;;;;;5048667;28;20056;-79
2021/06/23 10:31:52;;;;;;;1.20;0.60;;;19.90;67.40;;;;;;5048606;28;20076;-79
2021/06/23 10:34:19;;;;;;;0.60;0.60;;;19.80;67.70;;;;;;5101660;28;21328;-80
2021/06/23 10:36:46;;;;;;;1.30;0.70;;;19.80;67.70;;;;;;5064215;28;20398;-83
2021/06/23 10:39:14;;;;;;;2.05;0.80;;;19.80;67.80;;;;;;5079025;28;20066;-79
2021/06/23 10:41:43;;;;;;;1.13;0.50;;;19.80;67.70;;;;;;5073999;28;20040;-80
2021/06/23 10:44:32;;;;;;;0.50;0.50;;;19.90;67.50;;;;;;5076196;28;20510;-80
2021/06/23 10:47:00;;;;;;;0.50;0.50;;;19.90;67.40;;;;;;5093991;28;20035;-81
2021/06/23 10:50:09;;;;;;;0.50;0.50;;;20.00;67.20;;;;;;5058909;28;20085;-82
2021/06/23 10:52:38;;;;;;;1.33;0.50;;;20.20;66.80;;;;;;5061358;28;20520;-82
2021/06/23 10:58:30;;;;;;;0.60;0.60;;;20.40;66.20;;;;;;5050837;28;20036;-82
2021/06/23 11:01:13;;;;;;;0.47;0.47;;;20.50;66.00;;;;;;5058839;28;20050;-82
2021/06/23 11:04:07;;;;;;;0.60;0.60;;;20.50;65.70;;;;;;5031030;28;20120;-83
2021/06/23 11:06:43;;;;;;;0.90;0.57;;;20.50;65.60;;;;;;4998041;28;20042;-82
2021/06/23 11:09:23;;;;;;;1.17;0.50;;;20.60;65.60;;;;;;5014248;28;20053;-83
2021/06/23 11:11:49;;;;;;;0.40;0.40;;;20.60;65.60;;;;;;5030790;28;20041;-82
2021/06/23 11:14:17;;;;;;;1.70;0.93;;;20.60;65.70;;;;;;4997758;28;20087;-84
2021/06/23 11:16:43;;;;;;;0.98;0.50;;;20.60;65.50;;;;;;5014784;28;20051;-81
2021/06/23 11:19:09;;;;;;;1.38;0.65;;;20.50;65.50;;;;;;5014010;28;20136;-81
2021/06/23 11:21:35;;;;;;;1.08;0.70;;;20.50;65.80;;;;;;4998121;28;20563;-80
2021/06/23 11:24:02;;;;;;;0.45;0.45;;;20.40;65.80;;;;;;4988707;28;20072;-78
2021/06/23 11:26:46;;;;;;;1.67;0.60;;;20.50;65.80;;;;;;5006069;28;20072;-77
2021/06/23 11:29:29;;;;;;;1.17;0.57;;;20.60;65.50;;;;;;5024123;28;20462;-78
2021/06/23 11:32:03;;;;;;;0.88;0.57;;;20.50;65.30;;;;;;5004235;28;20037;-78
2021/06/23 11:34:43;;;;;;;0.47;0.47;;;20.60;65.50;;;;;;5028970;28;20043;-77
2021/06/23 11:37:13;;;;;;;0.73;0.73;;;20.60;65.30;;;;;;5065326;28;20408;-79
2021/06/23 11:39:39;;;;;;;0.50;0.50;;;20.70;65.30;;;;;;5075007;28;20032;-79
2021/06/23 11:42:05;;;;;;;0.45;0.45;;;20.70;65.10;;;;;;5106847;28;20551;-81
2021/06/23 11:44:34;;;;;;;0.55;0.43;;;20.70;65.10;;;;;;5058782;28;20036;-82
2021/06/23 11:47:01;;;;;;;1.17;0.60;;;20.80;65.30;;;;;;5064431;28;20040;-79
2021/06/23 11:49:32;;;;;;;1.52;0.60;;;20.70;65.30;;;;;;5059339;28;20043;-83
2021/06/23 11:52:42;;;;;;;0.50;0.50;;;20.80;65.40;;;;;;5041983;28;20062;-84
2021/06/23 11:55:08;;;;;;;0.98;0.68;;;20.80;65.10;;;;;;5058346;28;20039;-81
2021/06/23 12:04:26;;;;;;;0.73;0.50;;;20.90;65.30;;;;;;4920823;29;20055;-83
2021/06/23 12:13:50;;;;;;;1.23;0.60;;;20.90;64.50;;;;;;4928875;29;20150;-81
2021/06/23 12:16:25;;;;;;;0.47;0.47;;;20.80;64.90;;;;;;4929098;29;20130;-82
2021/06/23 12:18:51;;;;;;;0.55;0.40;;;20.80;64.80;;;;;;4908061;29;20536;-79
2021/06/23 12:21:16;;;;;;;1.00;0.60;;;20.70;64.90;;;;;;4933457;29;20079;-77
2021/06/23 12:23:42;;;;;;;0.47;0.47;;;20.80;65.00;;;;;;4928651;29;20054;-79
2021/06/23 12:26:07;;;;;;;0.63;0.50;;;20.90;64.90;;;;;;4967540;29;20042;-77
2021/06/23 12:28:33;;;;;;;1.42;0.73;;;20.80;64.90;;;;;;4977709;28;20054;-79
2021/06/23 12:30:59;;;;;;;0.40;0.40;;;20.90;64.80;;;;;;4945614;28;20401;-78
2021/06/23 12:33:24;;;;;;;0.52;0.50;;;21.00;64.50;;;;;;4980287;28;20111;-79
2021/06/23 12:35:50;;;;;;;0.40;0.40;;;21.10;64.30;;;;;;5008916;28;20036;-77
2021/06/23 12:38:21;;;;;;;0.98;0.57;;;21.10;64.10;;;;;;5015054;28;20038;-81
2021/06/23 12:40:47;;;;;;;0.50;0.45;;;21.00;64.10;;;;;;4981638;28;20052;-77
2021/06/23 12:43:14;;;;;;;0.40;0.40;;;21.10;64.20;;;;;;5006485;28;20032;-77
2021/06/23 12:45:43;;;;;;;0.65;0.60;;;21.10;64.20;;;;;;5078404;28;20056;-77
2021/06/23 12:48:09;;;;;;;1.20;0.73;;;21.10;64.10;;;;;;5096107;28;20044;-77
2021/06/23 12:50:35;;;;;;;1.10;0.60;;;21.00;64.20;;;;;;5100018;28;20036;-77
2021/06/23 12:53:01;;;;;;;0.95;0.60;;;21.10;64.20;;;;;;5100787;28;20051;-77
2021/06/23 12:55:27;;;;;;;0.50;0.50;;;21.20;64.00;;;;;;5079207;28;20044;-77
2021/06/23 12:57:53;;;;;;;0.85;0.77;;;21.20;63.80;;;;;;5098840;28;20447;-78
2021/06/23 13:00:20;;;;;;;0.70;0.60;;;21.20;63.70;;;;;;5062963;28;20044;-79
2021/06/23 13:02:46;;;;;;;1.23;0.70;;;21.20;63.70;;;;;;5077895;28;20032;-79
2021/06/23 13:05:14;;;;;;;0.85;0.65;;;21.20;63.70;;;;;;5077023;28;20062;-74
2021/06/23 13:07:40;;;;;;;0.65;0.50;;;21.20;63.60;;;;;;5077180;28;20389;-80
2021/06/23 13:10:07;;;;;;;1.13;1.00;;;21.10;63.70;;;;;;5060528;28;20024;-79
2021/06/23 13:12:34;;;;;;;1.17;0.63;;;21.00;63.70;;;;;;5078098;28;20069;-82
2021/06/23 13:15:06;;;;;;;0.80;0.80;;;20.90;63.90;;;;;;5059165;28;20094;-81
2021/06/23 13:17:31;;;;;;;0.73;0.60;;;20.80;63.90;;;;;;5060555;28;20478;-79
2021/06/23 13:19:57;;;;;;;1.17;0.55;;;20.80;64.10;;;;;;5077497;28;20043;-79
2021/06/23 13:22:23;;;;;;;0.90;0.50;;;20.70;64.30;;;;;;5060613;28;20092;-78
2021/06/23 13:24:49;;;;;;;1.08;0.60;;;20.70;64.30;;;;;;5058116;28;20450;-79
2021/06/23 13:27:14;;;;;;;0.88;0.50;;;20.70;64.40;;;;;;5094862;28;20044;-77
2021/06/23 13:29:40;;;;;;;0.60;0.60;;;20.70;64.50;;;;;;5094836;28;20430;-78
2021/06/23 13:32:08;;;;;;;0.70;0.70;;;20.60;64.60;;;;;;5060056;28;20393;-77
2021/06/23 13:34:35;;;;;;;1.80;0.70;;;20.50;64.50;;;;;;5060063;28;20048;-77
2021/06/23 13:37:01;;;;;;;0.60;0.60;;;20.40;64.60;;;;;;5076852;28;20497;-77
2021/06/23 13:39:28;;;;;;;0.50;0.50;;;20.40;64.90;;;;;;5080382;28;20079;-77
2021/06/23 13:41:54;;;;;;;1.05;0.47;;;20.30;64.80;;;;;;5078231;28;20096;-76